createdAt,value
2018-10-05T00:01:56.008Z,69.60
2018-10-05T00:04:24.547Z,69.30
2018-10-05T00:06:52.931Z,69.50
2018-10-05T00:09:21.408Z,69.90
2018-10-05T00:11:49.897Z,69.90
2018-10-05T00:14:18.335Z,69.90
2018-10-05T00:16:46.730Z,69.80
2018-10-05T00:19:15.091Z,69.50
2018-10-05T00:21:43.662Z,69.60
2018-10-05T00:24:12.044Z,69.80
2018-10-05T00:26:40.413Z,70.50
2018-10-05T00:29:08.915Z,70.30
2018-10-05T00:31:37.575Z,70.30
2018-10-05T00:34:05.952Z,70.50
2018-10-05T00:36:34.291Z,69.70
2018-10-05T00:39:02.708Z,69.40
2018-10-05T00:41:31.134Z,69.50
2018-10-05T00:43:59.483Z,69.30
2018-10-05T00:46:27.987Z,69.60
2018-10-05T00:48:56.385Z,69.70
2018-10-05T00:51:24.854Z,69.70
2018-10-05T00:53:53.322Z,69.80
2018-10-05T00:56:21.665Z,70.30
2018-10-05T00:58:50.059Z,70.00
2018-10-05T01:03:48.603Z,70.00
2018-10-05T01:06:17.006Z,69.70
2018-10-05T01:08:45.380Z,69.70
2018-10-05T01:11:13.762Z,69.70
2018-10-05T01:13:42.322Z,69.60
2018-10-05T01:16:10.671Z,69.60
2018-10-05T01:18:39.055Z,69.50
2018-10-05T01:21:07.426Z,69.50
2018-10-05T01:23:35.804Z,69.70
2018-10-05T01:26:04.155Z,69.70
2018-10-05T01:28:32.603Z,69.70
2018-10-05T01:31:01.018Z,69.70
2018-10-05T01:33:29.544Z,69.70
2018-10-05T01:35:57.936Z,69.60
2018-10-05T01:38:27.303Z,69.60
2018-10-05T01:40:55.695Z,69.60
2018-10-05T01:43:24.094Z,69.50
2018-10-05T01:45:52.439Z,69.60
2018-10-05T01:48:21.053Z,69.40
2018-10-05T01:50:49.403Z,69.30
2018-10-05T01:53:17.806Z,69.10
2018-10-05T01:55:46.165Z,68.80
2018-10-05T01:58:14.534Z,69.00
2018-10-05T02:00:43.008Z,69.10
2018-10-05T02:03:11.439Z,69.10
2018-10-05T02:05:39.796Z,69.10
2018-10-05T02:08:08.198Z,69.30
2018-10-05T02:10:36.548Z,69.10
2018-10-05T02:13:04.948Z,69.40
2018-10-05T02:15:33.588Z,69.50
2018-10-05T02:18:02.015Z,69.40
2018-10-05T02:20:30.403Z,69.30
2018-10-05T02:22:58.806Z,69.40
2018-10-05T02:25:27.156Z,69.50
2018-10-05T02:27:55.555Z,69.60
2018-10-05T02:30:24.227Z,69.50
2018-10-05T02:32:52.713Z,69.50
2018-10-05T02:35:21.011Z,69.80
2018-10-05T02:37:49.456Z,69.90
2018-10-05T02:40:17.898Z,70.00
2018-10-05T02:42:46.313Z,70.00
2018-10-05T02:45:14.754Z,69.60
2018-10-05T02:47:43.153Z,69.60
2018-10-05T02:50:11.519Z,69.70
2018-10-05T02:52:39.924Z,69.80
2018-10-05T02:55:08.341Z,69.80
2018-10-05T02:57:36.973Z,69.70
2018-10-05T03:00:15.232Z,69.40
2018-10-05T03:02:43.602Z,69.30
2018-10-05T03:05:12.086Z,69.20
2018-10-05T03:07:40.462Z,69.00
2018-10-05T03:10:08.822Z,68.80
2018-10-05T03:12:37.236Z,68.50
2018-10-05T03:15:05.624Z,68.50
2018-10-05T03:17:34.122Z,68.40
2018-10-05T03:20:02.498Z,68.40
2018-10-05T03:22:30.938Z,68.30
2018-10-05T03:25:00.023Z,68.20
2018-10-05T03:27:28.411Z,69.00
2018-10-05T03:29:57.319Z,69.00
2018-10-05T03:32:25.783Z,69.90
2018-10-05T03:34:54.184Z,69.30
2018-10-05T03:37:23.720Z,69.10
2018-10-05T03:39:52.498Z,69.10
2018-10-05T03:42:20.951Z,68.80
2018-10-05T03:44:49.347Z,69.20
2018-10-05T03:47:17.710Z,69.30
2018-10-05T03:49:46.076Z,69.90
2018-10-05T03:52:14.472Z,69.40
2018-10-05T03:54:42.866Z,69.40
2018-10-05T03:57:11.202Z,69.10
2018-10-05T03:59:39.683Z,69.00
2018-10-05T04:02:08.047Z,69.00
2018-10-05T04:04:36.620Z,69.10
2018-10-05T04:07:04.982Z,69.10
2018-10-05T04:09:33.363Z,68.90
2018-10-05T04:12:01.758Z,68.90
2018-10-05T04:14:30.111Z,69.10
2018-10-05T04:16:58.462Z,69.30
2018-10-05T04:19:26.996Z,69.00
2018-10-05T04:21:55.370Z,69.00
2018-10-05T04:24:24.527Z,68.80
2018-10-05T04:26:52.908Z,68.80
2018-10-05T04:29:21.286Z,69.00
2018-10-05T04:31:49.682Z,69.10
2018-10-05T04:34:18.119Z,69.20
2018-10-05T04:36:46.483Z,69.20
2018-10-05T04:39:14.914Z,68.80
2018-10-05T04:41:43.293Z,68.90
2018-10-05T04:44:11.713Z,69.10
2018-10-05T04:46:40.113Z,68.90
2018-10-05T04:49:08.551Z,69.00
2018-10-05T04:51:36.949Z,69.20
2018-10-05T04:54:05.342Z,69.20
2018-10-05T04:56:33.755Z,69.40
2018-10-05T04:59:02.159Z,69.30
2018-10-05T05:01:30.535Z,69.20
2018-10-05T05:03:59.173Z,69.30
2018-10-05T05:06:27.566Z,69.30
2018-10-05T05:08:55.973Z,68.90
2018-10-05T05:11:24.327Z,68.80
2018-10-05T05:13:52.752Z,68.70
2018-10-05T05:16:21.087Z,68.80
2018-10-05T05:18:49.481Z,68.80
2018-10-05T05:21:18.171Z,68.70
2018-10-05T05:23:46.650Z,68.70
2018-10-05T05:26:15.039Z,68.70
2018-10-05T05:28:43.426Z,68.70
2018-10-05T05:31:11.847Z,68.70
2018-10-05T05:33:40.282Z,68.50
2018-10-05T05:36:09.483Z,69.50
2018-10-05T05:38:38.256Z,69.20
2018-10-05T05:41:06.691Z,69.00
2018-10-05T05:43:35.194Z,69.10
2018-10-05T05:46:03.571Z,68.90
2018-10-05T05:48:31.951Z,68.90
2018-10-05T05:51:00.330Z,69.00
2018-10-05T05:53:28.723Z,69.20
2018-10-05T05:55:57.107Z,69.30
2018-10-05T05:58:25.531Z,69.70
2018-10-05T06:00:53.970Z,69.80
2018-10-05T06:03:22.328Z,69.60
2018-10-05T06:05:50.730Z,69.50
2018-10-05T06:08:19.799Z,69.60
2018-10-05T06:10:48.879Z,69.80
2018-10-05T06:13:17.400Z,70.40
2018-10-05T06:15:45.788Z,69.80
2018-10-05T06:18:14.404Z,69.80
2018-10-05T06:20:42.787Z,69.80
2018-10-05T06:23:11.511Z,69.80
2018-10-05T06:25:39.891Z,69.90
2018-10-05T06:28:08.695Z,69.90
2018-10-05T06:30:37.198Z,70.20
2018-10-05T06:33:05.553Z,70.50
2018-10-05T06:35:34.078Z,70.50
2018-10-05T06:38:02.552Z,70.60
2018-10-05T06:40:30.929Z,70.50
2018-10-05T06:42:59.579Z,70.80
2018-10-05T06:45:27.943Z,70.90
2018-10-05T06:47:56.806Z,71.00
2018-10-05T06:50:25.531Z,71.50
2018-10-05T06:52:55.262Z,71.70
2018-10-05T06:55:23.630Z,71.90
2018-10-05T06:57:52.059Z,72.20
2018-10-05T07:00:20.421Z,72.40
2018-10-05T07:02:48.839Z,72.70
2018-10-05T07:05:17.255Z,72.90
2018-10-05T07:07:45.802Z,73.10
2018-10-05T07:10:13.995Z,73.40
2018-10-05T07:12:43.441Z,73.60
2018-10-05T07:15:11.812Z,73.90
2018-10-05T07:17:40.214Z,74.00
2018-10-05T07:20:08.610Z,74.20
2018-10-05T07:22:37.148Z,74.40
2018-10-05T07:25:05.555Z,74.70
2018-10-05T07:27:33.931Z,75.00
2018-10-05T07:30:02.937Z,75.10
2018-10-05T07:32:31.873Z,75.30
2018-10-05T07:35:00.243Z,75.60
2018-10-05T07:37:28.650Z,75.80
2018-10-05T07:39:57.061Z,75.80
2018-10-05T07:42:25.619Z,75.60
2018-10-05T07:44:53.988Z,75.80
2018-10-05T07:47:22.339Z,76.20
2018-10-05T07:49:50.721Z,76.30
2018-10-05T07:52:19.803Z,76.30
2018-10-05T07:54:48.234Z,76.10
2018-10-05T07:57:16.588Z,76.10
2018-10-05T07:59:44.983Z,76.40
2018-10-05T08:02:13.435Z,76.60
2018-10-05T08:04:41.902Z,77.00
2018-10-05T08:07:10.262Z,77.50
2018-10-05T08:09:38.725Z,77.20
2018-10-05T08:12:07.242Z,77.20
2018-10-05T08:14:35.611Z,76.20
2018-10-05T08:17:04.035Z,75.20
2018-10-05T08:19:32.488Z,75.10
2018-10-05T08:22:00.943Z,74.50
2018-10-05T08:24:29.346Z,73.00
2018-10-05T08:26:57.700Z,72.40
2018-10-05T08:29:26.078Z,72.00
2018-10-05T08:31:54.434Z,72.30
2018-10-05T08:34:22.900Z,72.00
2018-10-05T08:36:51.731Z,71.40
2018-10-05T08:39:20.236Z,70.00
2018-10-05T08:41:48.612Z,70.30
2018-10-05T08:44:17.204Z,70.60
2018-10-05T08:46:45.697Z,69.00
2018-10-05T08:49:14.120Z,70.00
2018-10-05T08:51:42.537Z,70.00
2018-10-05T08:54:10.934Z,69.70
2018-10-05T08:56:39.291Z,70.20
2018-10-05T08:59:07.714Z,68.10
2018-10-05T09:01:36.074Z,68.10
2018-10-05T09:04:04.636Z,68.70
2018-10-05T09:06:33.035Z,67.60
2018-10-05T09:09:01.387Z,66.50
2018-10-05T09:11:30.306Z,66.20
2018-10-05T09:13:58.766Z,65.60
2018-10-05T09:16:27.170Z,65.90
2018-10-05T09:18:55.569Z,66.00
2018-10-05T09:21:23.964Z,65.10
2018-10-05T09:23:52.352Z,64.90
2018-10-05T09:26:20.853Z,64.20
2018-10-05T09:28:49.235Z,63.50
2018-10-05T09:31:17.662Z,62.00
2018-10-05T09:33:46.024Z,62.90
2018-10-05T09:36:14.457Z,63.60
2018-10-05T09:38:42.871Z,61.90
2018-10-05T09:41:11.330Z,62.80
2018-10-05T09:43:39.691Z,62.80
2018-10-05T09:46:08.048Z,61.60
2018-10-05T09:48:36.455Z,60.80
2018-10-05T09:51:04.827Z,58.80
2018-10-05T09:53:33.227Z,58.40
2018-10-05T09:56:01.604Z,57.60
2018-10-05T09:58:30.098Z,58.20
2018-10-05T10:01:03.862Z,59.10
2018-10-05T10:03:33.936Z,57.90
2018-10-05T10:06:02.959Z,58.30
2018-10-05T10:08:31.629Z,57.50
2018-10-05T10:10:59.943Z,57.70
2018-10-05T10:13:28.983Z,57.20
2018-10-05T10:15:57.396Z,56.40
2018-10-05T10:18:25.906Z,56.00
2018-10-05T10:20:54.250Z,56.40
2018-10-05T10:23:22.865Z,56.40
2018-10-05T10:25:51.503Z,55.10
2018-10-05T10:28:19.877Z,54.90
2018-10-05T10:30:48.246Z,53.50
2018-10-05T10:33:16.683Z,54.20
2018-10-05T10:35:45.056Z,55.80
2018-10-05T10:38:13.412Z,54.90
2018-10-05T10:40:41.953Z,53.30
2018-10-05T10:43:10.380Z,51.60
2018-10-05T10:45:38.814Z,51.40
2018-10-05T10:48:07.209Z,51.00
2018-10-05T10:50:35.591Z,50.50
2018-10-05T10:53:03.943Z,51.60
2018-10-05T10:55:32.475Z,50.10
2018-10-05T10:58:00.864Z,50.10
2018-10-05T11:00:29.426Z,51.10
2018-10-05T11:02:57.812Z,51.50
2018-10-05T11:05:26.275Z,49.60
2018-10-05T11:07:54.638Z,50.10
2018-10-05T11:10:23.059Z,49.00
2018-10-05T11:12:51.597Z,48.80
2018-10-05T11:15:19.991Z,46.90
2018-10-05T11:17:48.541Z,46.00
2018-10-05T11:20:16.915Z,45.40
2018-10-05T11:22:45.260Z,45.30
2018-10-05T11:25:13.758Z,45.40
2018-10-05T11:27:42.391Z,44.50
2018-10-05T11:30:10.811Z,44.70
2018-10-05T11:32:39.185Z,46.60
2018-10-05T11:35:07.680Z,44.50
2018-10-05T11:37:36.075Z,44.50
2018-10-05T11:40:04.642Z,44.30
2018-10-05T11:42:33.015Z,44.20
2018-10-05T11:45:01.715Z,43.80
2018-10-05T11:47:30.087Z,43.70
2018-10-05T11:49:58.497Z,42.60
2018-10-05T11:52:27.132Z,42.80
2018-10-05T11:54:55.590Z,43.40
2018-10-05T11:57:24.015Z,42.40
2018-10-05T11:59:52.446Z,43.30
2018-10-05T12:02:20.791Z,40.90
2018-10-05T12:04:49.229Z,40.90
2018-10-05T12:07:17.607Z,40.50
2018-10-05T12:09:46.021Z,40.30
2018-10-05T12:12:14.426Z,40.60
2018-10-05T12:14:43.931Z,40.20
2018-10-05T12:17:12.284Z,40.70
2018-10-05T12:19:40.646Z,39.70
2018-10-05T12:22:09.113Z,38.80
2018-10-05T12:24:37.551Z,40.20
2018-10-05T12:27:05.987Z,40.30
2018-10-05T12:29:34.355Z,39.70
2018-10-05T12:32:02.730Z,41.10
2018-10-05T12:34:31.253Z,40.70
2018-10-05T12:36:59.704Z,40.40
2018-10-05T12:39:28.026Z,39.60
2018-10-05T12:41:56.524Z,39.70
2018-10-05T12:44:25.105Z,39.10
2018-10-05T12:46:53.472Z,37.40
2018-10-05T12:49:21.842Z,36.40
2018-10-05T12:51:50.335Z,36.30
2018-10-05T12:54:18.801Z,36.40
2018-10-05T12:56:48.098Z,36.00
2018-10-05T12:59:16.502Z,36.00
2018-10-05T13:01:45.110Z,35.30
2018-10-05T13:04:14.962Z,35.30
2018-10-05T13:06:43.444Z,35.60
2018-10-05T13:09:11.803Z,35.90
2018-10-05T13:11:40.596Z,34.30
2018-10-05T13:14:08.954Z,35.10
2018-10-05T13:16:37.650Z,35.70
2018-10-05T13:19:06.256Z,35.10
2018-10-05T13:21:34.787Z,36.00
2018-10-05T13:24:04.278Z,35.60
2018-10-05T13:26:33.619Z,35.90
2018-10-05T13:29:02.087Z,36.20
2018-10-05T13:31:30.532Z,35.50
2018-10-05T13:33:59.017Z,36.10
2018-10-05T13:36:27.555Z,34.80
2018-10-05T13:38:55.891Z,35.90
2018-10-05T13:41:24.310Z,36.10
2018-10-05T13:43:52.647Z,34.30
2018-10-05T13:46:21.167Z,34.10
2018-10-05T13:48:49.503Z,34.90
2018-10-05T13:51:17.892Z,34.40
2018-10-05T13:53:46.226Z,33.50
2018-10-05T13:56:14.585Z,34.10
2018-10-05T13:58:42.943Z,33.50
2018-10-05T14:01:11.323Z,33.60
2018-10-05T14:03:39.672Z,33.90
2018-10-05T14:06:08.375Z,33.30
2018-10-05T14:08:36.744Z,33.30
2018-10-05T14:11:05.120Z,33.50
2018-10-05T14:13:33.503Z,32.30
2018-10-05T14:16:02.554Z,31.70
2018-10-05T14:18:31.023Z,32.10
2018-10-05T14:21:00.402Z,33.10
2018-10-05T14:23:28.912Z,32.30
2018-10-05T14:25:57.492Z,32.30
2018-10-05T14:28:25.829Z,33.50
2018-10-05T14:30:54.399Z,32.20
2018-10-05T14:33:22.938Z,30.90
2018-10-05T14:35:51.310Z,30.60
2018-10-05T14:38:19.633Z,30.40
2018-10-05T14:40:48.050Z,30.00
2018-10-05T14:43:16.396Z,30.50
2018-10-05T14:45:44.880Z,30.60
2018-10-05T14:48:13.162Z,29.60
2018-10-05T14:50:41.547Z,29.80
2018-10-05T14:53:09.948Z,29.00
2018-10-05T14:55:38.329Z,29.10
2018-10-05T14:58:06.698Z,29.70
2018-10-05T15:00:35.060Z,30.30
2018-10-05T15:03:03.886Z,30.70
2018-10-05T15:05:32.311Z,30.20
2018-10-05T15:08:00.857Z,29.80
2018-10-05T15:10:29.608Z,29.30
2018-10-05T15:12:58.079Z,30.50
2018-10-05T15:15:26.432Z,29.90
2018-10-05T15:17:54.785Z,29.60
2018-10-05T15:20:23.255Z,29.40
2018-10-05T15:22:51.695Z,29.70
2018-10-05T15:25:20.154Z,30.00
2018-10-05T15:27:48.631Z,30.50
2018-10-05T15:30:17.114Z,31.10
2018-10-05T15:32:46.522Z,31.50
2018-10-05T15:35:14.993Z,31.30
2018-10-05T15:37:43.607Z,31.50
2018-10-05T15:40:11.980Z,31.50
2018-10-05T15:42:40.355Z,30.90
2018-10-05T15:45:08.759Z,30.70
2018-10-05T15:47:37.197Z,31.30
2018-10-05T15:50:06.374Z,31.00
2018-10-05T15:52:35.129Z,32.50
2018-10-05T15:55:03.858Z,32.70
2018-10-05T15:57:32.221Z,33.00
2018-10-05T16:00:00.690Z,33.30
2018-10-05T16:02:29.011Z,33.60
2018-10-05T16:04:58.008Z,34.10
2018-10-05T16:07:26.484Z,33.90
2018-10-05T16:09:54.868Z,34.30
2018-10-05T16:12:23.294Z,34.40
2018-10-05T16:14:52.177Z,34.80
2018-10-05T16:17:21.823Z,35.10
2018-10-05T16:19:50.238Z,35.70
2018-10-05T16:22:18.994Z,36.20
2018-10-05T16:24:47.555Z,36.40
2018-10-05T16:27:15.903Z,36.70
2018-10-05T16:29:44.267Z,37.30
2018-10-05T16:32:16.763Z,37.60
2018-10-05T16:34:45.284Z,38.30
2018-10-05T16:37:13.798Z,39.00
2018-10-05T16:39:42.382Z,39.70
2018-10-05T16:42:10.729Z,40.20
2018-10-05T16:44:39.128Z,40.70
2018-10-05T16:47:07.498Z,41.40
2018-10-05T16:49:35.905Z,41.60
2018-10-05T16:52:04.239Z,42.20
2018-10-05T16:54:32.619Z,42.50
2018-10-05T16:57:01.100Z,42.80
2018-10-05T16:59:29.484Z,42.90
2018-10-05T17:01:57.959Z,43.60
2018-10-05T17:04:26.404Z,44.40
2018-10-05T17:06:54.799Z,44.50
2018-10-05T17:09:23.230Z,45.00
2018-10-05T17:11:51.560Z,45.40
2018-10-05T17:14:19.994Z,45.10
2018-10-05T17:16:48.352Z,45.10
2018-10-05T17:19:16.792Z,44.90
2018-10-05T17:21:45.185Z,45.70
2018-10-05T17:24:13.923Z,46.10
2018-10-05T17:26:42.294Z,46.80
2018-10-05T17:29:12.126Z,47.20
2018-10-05T17:31:40.544Z,47.70
2018-10-05T17:34:09.024Z,47.80
2018-10-05T17:36:37.447Z,47.70
2018-10-05T17:39:08.772Z,47.80
2018-10-05T17:41:37.155Z,48.30
2018-10-05T17:44:05.538Z,48.40
2018-10-05T17:46:34.520Z,48.50
2018-10-05T17:49:03.005Z,48.50
2018-10-05T17:51:31.365Z,48.90
2018-10-05T17:53:59.756Z,48.60
2018-10-05T17:56:28.526Z,49.40
2018-10-05T17:58:57.081Z,49.70
2018-10-05T18:01:26.638Z,50.60
2018-10-05T18:03:56.031Z,50.70
2018-10-05T18:06:25.066Z,51.00
2018-10-05T18:08:54.176Z,51.10
2018-10-05T18:11:24.034Z,51.30
2018-10-05T18:13:53.282Z,51.50
2018-10-05T18:16:21.791Z,51.80
2018-10-05T18:18:50.200Z,51.80
2018-10-05T18:21:18.555Z,51.90
2018-10-05T18:23:46.964Z,52.20
2018-10-05T18:26:15.715Z,52.20
2018-10-05T18:28:44.127Z,52.40
2018-10-05T18:31:12.458Z,52.50
2018-10-05T18:33:40.879Z,52.70
2018-10-05T18:36:09.326Z,52.90
2018-10-05T18:38:37.808Z,53.10
2018-10-05T18:41:06.435Z,53.30
2018-10-05T18:43:34.769Z,53.50
2018-10-05T18:46:03.250Z,53.60
2018-10-05T18:48:31.663Z,53.70
2018-10-05T18:51:00.158Z,53.90
2018-10-05T18:53:28.554Z,54.10
2018-10-05T18:56:06.990Z,54.30
2018-10-05T18:58:35.492Z,54.40
2018-10-05T19:01:03.857Z,54.30
2018-10-05T19:03:32.263Z,54.30
2018-10-05T19:06:00.617Z,54.50
2018-10-05T19:08:29.036Z,54.80
2018-10-05T19:10:57.394Z,54.90
2018-10-05T19:13:25.801Z,55.10
2018-10-05T19:15:54.204Z,55.20
2018-10-05T19:18:22.681Z,55.30
2018-10-05T19:20:51.045Z,55.40
2018-10-05T19:23:19.419Z,55.40
2018-10-05T19:25:47.770Z,55.40
2018-10-05T19:28:16.343Z,55.50
2018-10-05T19:30:44.790Z,55.60
2018-10-05T19:33:13.190Z,55.90
2018-10-05T19:35:41.560Z,55.90
2018-10-05T19:38:10.277Z,56.10
2018-10-05T19:40:39.089Z,56.00
2018-10-05T19:43:07.470Z,56.00
2018-10-05T19:45:36.055Z,55.90
2018-10-05T19:48:04.804Z,55.80
2018-10-05T19:50:33.219Z,56.00
2018-10-05T19:53:01.727Z,56.20
2018-10-05T19:55:30.157Z,56.20
2018-10-05T19:57:59.139Z,56.90
2018-10-05T20:00:27.954Z,56.50
2018-10-05T20:02:56.582Z,56.60
2018-10-05T20:05:25.533Z,56.60
2018-10-05T20:07:56.308Z,56.70
2018-10-05T20:10:24.798Z,56.70
2018-10-05T20:12:53.227Z,56.60
2018-10-05T20:15:21.818Z,56.60
2018-10-05T20:17:51.456Z,56.60
2018-10-05T20:20:19.781Z,56.60
2018-10-05T20:22:48.448Z,56.60
2018-10-05T20:25:17.145Z,56.70
2018-10-05T20:27:45.605Z,56.70
2018-10-05T20:30:14.314Z,57.10
2018-10-05T20:32:42.825Z,57.00
2018-10-05T20:35:11.195Z,57.20
2018-10-05T20:37:39.830Z,57.90
2018-10-05T20:40:08.054Z,57.50
2018-10-05T20:42:36.603Z,57.60
2018-10-05T20:45:05.011Z,57.70
2018-10-05T20:47:33.403Z,57.80
2018-10-05T20:50:01.768Z,57.70
2018-10-05T20:52:30.852Z,57.80
2018-10-05T20:54:59.310Z,57.80
2018-10-05T20:57:27.787Z,57.80
2018-10-05T20:59:56.168Z,57.80
2018-10-05T21:02:24.791Z,57.90
2018-10-05T21:04:53.186Z,57.90
2018-10-05T21:07:21.739Z,57.90
2018-10-05T21:09:51.473Z,57.80
2018-10-05T21:12:19.746Z,58.00
2018-10-05T21:14:48.238Z,58.10
2018-10-05T21:17:16.655Z,58.40
2018-10-05T21:19:45.299Z,58.50
2018-10-05T21:22:13.744Z,58.80
2018-10-05T21:24:42.351Z,58.70
2018-10-05T21:27:10.899Z,58.60
2018-10-05T21:29:39.278Z,58.70
2018-10-05T21:32:08.182Z,58.70
2018-10-05T21:34:36.572Z,58.60
2018-10-05T21:37:05.751Z,58.80
2018-10-05T21:39:34.218Z,58.80
2018-10-05T21:42:02.642Z,58.80
2018-10-05T21:44:31.314Z,58.90
2018-10-05T21:47:00.088Z,59.60
2018-10-05T21:49:28.483Z,59.20
2018-10-05T21:51:56.897Z,59.50
2018-10-05T21:54:25.607Z,59.40
2018-10-05T21:56:54.076Z,59.40
2018-10-05T21:59:22.506Z,59.30
2018-10-05T22:01:50.914Z,59.30
2018-10-05T22:04:19.384Z,59.20
2018-10-05T22:06:48.182Z,59.10
2018-10-05T22:09:16.533Z,59.00
2018-10-05T22:11:45.144Z,59.20
2018-10-05T22:14:13.520Z,59.20
2018-10-05T22:16:42.139Z,59.30
2018-10-05T22:19:10.504Z,59.50
2018-10-05T22:21:38.895Z,59.60
2018-10-05T22:24:07.374Z,59.60
2018-10-05T22:26:35.812Z,59.50
2018-10-05T22:29:04.167Z,59.60
2018-10-05T22:31:32.736Z,59.70
2018-10-05T22:34:01.339Z,59.70
2018-10-05T22:36:30.235Z,59.60
2018-10-05T22:38:58.610Z,59.40
2018-10-05T22:41:26.963Z,59.50
2018-10-05T22:43:55.752Z,59.50
2018-10-05T22:46:24.126Z,59.60
2018-10-05T22:48:52.565Z,59.60
2018-10-05T22:51:21.311Z,59.50
2018-10-05T22:53:49.732Z,59.50
2018-10-05T22:56:18.279Z,59.50
2018-10-05T22:58:46.658Z,59.80
2018-10-05T23:01:15.115Z,59.80
2018-10-05T23:03:43.690Z,60.10
2018-10-05T23:06:12.068Z,60.20
2018-10-05T23:08:40.494Z,59.90
2018-10-05T23:11:08.946Z,60.00
2018-10-05T23:13:37.670Z,60.10
2018-10-05T23:16:06.093Z,60.50
2018-10-05T23:18:34.518Z,60.50
2018-10-05T23:21:03.379Z,60.50
2018-10-05T23:23:31.826Z,60.30
2018-10-05T23:26:00.231Z,60.20
2018-10-05T23:28:28.699Z,60.00
2018-10-05T23:30:57.190Z,60.10
2018-10-05T23:33:25.587Z,60.30
2018-10-05T23:35:54.110Z,60.20
2018-10-05T23:38:22.491Z,60.40
2018-10-05T23:40:50.858Z,60.60
2018-10-05T23:43:19.380Z,60.70
2018-10-05T23:45:47.748Z,60.80
2018-10-05T23:48:16.359Z,60.60
2018-10-05T23:50:44.762Z,60.70
2018-10-05T23:53:13.215Z,60.70
2018-10-05T23:55:41.599Z,61.00
2018-10-05T23:58:10.249Z,60.90
